Time;durP1;ratioP1;P1;durP2;ratioP2;P2;SDS_P1;SDS_P2;PMS_P1;PMS_P2;Temp;Humidity;BMP_temperature;BMP_pressure;BME280_temperature;BME280_humidity;BME280_pressure;Samples;Min_cycle;Max_cycle;Signal;HPM_P1;HPM_P2
2022/08/28 00:00:24;;;;;;;9.05;3.63;;;12.50;99.90;;;;;;5085359;28;20123;-62
2022/08/28 00:02:49;;;;;;;10.55;4.15;;;12.60;99.90;;;;;;5090209;28;20101;-61
2022/08/28 00:05:17;;;;;;;9.13;3.55;;;12.60;99.90;;;;;;5087691;28;20039;-61
2022/08/28 00:07:43;;;;;;;15.77;4.65;;;12.60;99.90;;;;;;5083314;28;20374;-61
2022/08/28 00:10:11;;;;;;;10.93;3.40;;;12.60;99.90;;;;;;5093843;28;20040;-61
2022/08/28 00:12:38;;;;;;;9.88;3.80;;;12.50;99.90;;;;;;5082690;28;20033;-61
2022/08/28 00:15:07;;;;;;;13.20;3.80;;;12.50;99.90;;;;;;5084325;28;20857;-61
2022/08/28 00:17:33;;;;;;;12.00;4.47;;;12.60;99.90;;;;;;5080826;28;20036;-61
2022/08/28 00:19:58;;;;;;;9.80;4.30;;;12.60;99.90;;;;;;5087444;28;20040;-62
2022/08/28 00:22:24;;;;;;;10.63;4.38;;;12.60;99.90;;;;;;5092749;28;20034;-62
2022/08/28 00:24:50;;;;;;;13.30;4.95;;;12.60;99.90;;;;;;5077647;28;20385;-61
2022/08/28 00:30:07;;;;;;;8.30;3.80;;;12.70;99.90;;;;;;5054956;28;20043;-61
2022/08/28 00:32:34;;;;;;;9.88;4.03;;;12.60;99.90;;;;;;5057922;28;20044;-62
2022/08/28 00:35:01;;;;;;;8.05;3.85;;;12.50;99.90;;;;;;5071288;28;20084;-61
2022/08/28 00:37:27;;;;;;;7.32;3.42;;;12.40;99.90;;;;;;5075869;28;20037;-61
2022/08/28 00:39:53;;;;;;;14.20;4.70;;;12.40;99.90;;;;;;5092580;28;20028;-62
2022/08/28 00:42:20;;;;;;;9.43;4.45;;;12.30;99.90;;;;;;5083749;28;20033;-62
2022/08/28 00:44:45;;;;;;;10.18;3.85;;;12.30;99.90;;;;;;5075010;28;20036;-61
2022/08/28 00:47:11;;;;;;;7.35;3.70;;;12.20;99.90;;;;;;5090884;28;20063;-61
2022/08/28 00:49:46;;;;;;;7.20;3.65;;;12.20;99.90;;;;;;5078194;28;20067;-61
2022/08/28 00:52:14;;;;;;;9.05;3.85;;;12.10;99.90;;;;;;5075088;28;20060;-62
2022/08/28 00:54:48;;;;;;;7.40;3.70;;;12.10;99.90;;;;;;5074991;28;20037;-61
2022/08/28 00:57:18;;;;;;;10.18;4.00;;;12.10;99.90;;;;;;5087255;28;20063;-60
2022/08/28 00:59:43;;;;;;;10.38;4.13;;;12.10;99.90;;;;;;5078640;28;20086;-61
2022/08/28 01:02:10;;;;;;;10.02;4.15;;;12.10;99.90;;;;;;5082931;28;20036;-61
2022/08/28 01:04:36;;;;;;;11.20;3.80;;;12.00;99.90;;;;;;5080579;28;20041;-61
2022/08/28 01:07:05;;;;;;;8.50;3.78;;;12.00;99.90;;;;;;5078773;28;20093;-61
2022/08/28 01:09:33;;;;;;;8.07;3.92;;;12.00;99.90;;;;;;5059686;28;20041;-61
2022/08/28 01:12:05;;;;;;;8.77;3.78;;;11.90;99.90;;;;;;5088847;28;20109;-61
2022/08/28 01:14:35;;;;;;;11.00;3.92;;;11.90;99.90;;;;;;5075130;28;20472;-61
2022/08/28 01:17:01;;;;;;;8.27;3.58;;;11.90;99.90;;;;;;5074783;28;20082;-61
2022/08/28 01:19:38;;;;;;;11.48;4.43;;;11.90;99.90;;;;;;5074083;28;20064;-62
2022/08/28 01:22:36;;;;;;;9.55;3.88;;;11.90;99.90;;;;;;5077512;28;20042;-61
2022/08/28 01:25:23;;;;;;;9.18;3.70;;;12.00;99.90;;;;;;5089889;28;20384;-61
2022/08/28 01:27:50;;;;;;;9.43;3.88;;;12.00;99.90;;;;;;5075002;28;20361;-61
2022/08/28 01:30:20;;;;;;;7.78;3.63;;;12.00;99.90;;;;;;5084605;28;20065;-61
2022/08/28 01:32:50;;;;;;;10.85;3.78;;;12.00;99.90;;;;;;5091275;28;20388;-61
2022/08/28 01:35:19;;;;;;;9.73;3.92;;;12.00;99.90;;;;;;5083134;28;20097;-61
2022/08/28 01:37:46;;;;;;;22.65;3.72;;;11.90;99.90;;;;;;5083555;28;20128;-61
2022/08/28 01:40:16;;;;;;;9.85;3.88;;;11.80;99.90;;;;;;5087308;28;20043;-61
2022/08/28 01:42:43;;;;;;;11.93;4.15;;;11.80;99.90;;;;;;5084689;28;20032;-61
2022/08/28 01:45:13;;;;;;;7.22;4.05;;;11.70;99.90;;;;;;5076615;28;20056;-61
2022/08/28 01:47:41;;;;;;;9.68;3.70;;;11.70;99.90;;;;;;5085203;28;20044;-61
2022/08/28 01:50:08;;;;;;;8.55;3.92;;;11.70;99.90;;;;;;5088737;28;20116;-61
2022/08/28 01:52:35;;;;;;;15.13;4.43;;;11.70;99.90;;;;;;5089882;28;20040;-61
2022/08/28 01:55:01;;;;;;;11.98;4.32;;;11.70;99.90;;;;;;5091727;28;20048;-61
2022/08/28 01:57:27;;;;;;;7.28;3.90;;;11.70;99.90;;;;;;5070058;28;20031;-61
2022/08/28 01:59:53;;;;;;;11.77;3.85;;;11.80;99.90;;;;;;5077372;28;20338;-61
2022/08/28 02:02:19;;;;;;;9.82;4.07;;;11.80;99.90;;;;;;5087547;28;20111;-61
2022/08/28 02:04:45;;;;;;;9.98;4.07;;;11.90;99.90;;;;;;5070923;28;20434;-61
2022/08/28 02:07:11;;;;;;;8.50;3.08;;;11.90;99.90;;;;;;5073552;28;20043;-61
2022/08/28 02:09:36;;;;;;;9.90;4.15;;;11.90;99.90;;;;;;5071469;28;20041;-61
2022/08/28 02:12:02;;;;;;;8.43;3.88;;;11.90;99.90;;;;;;5072867;28;20539;-61
2022/08/28 02:14:29;;;;;;;14.85;4.30;;;11.90;99.90;;;;;;5072653;28;20738;-61
2022/08/28 02:16:55;;;;;;;12.20;4.10;;;11.90;99.90;;;;;;5082227;28;20036;-61
2022/08/28 02:19:21;;;;;;;10.80;4.53;;;11.90;99.90;;;;;;5089331;28;20047;-61
2022/08/28 02:21:47;;;;;;;9.38;3.85;;;11.90;99.90;;;;;;5089707;28;20036;-61
2022/08/28 02:24:13;;;;;;;11.23;3.92;;;11.90;99.90;;;;;;5082157;28;20699;-61
2022/08/28 02:26:38;;;;;;;11.38;3.75;;;11.90;99.90;;;;;;5083188;28;20036;-61
2022/08/28 02:29:04;;;;;;;8.85;4.05;;;11.90;99.90;;;;;;5072347;28;20046;-61
2022/08/28 02:31:30;;;;;;;9.32;3.60;;;11.80;99.90;;;;;;5075543;28;20427;-61
2022/08/28 02:33:55;;;;;;;9.15;3.90;;;11.80;99.90;;;;;;5072526;28;20127;-61
2022/08/28 02:36:22;;;;;;;8.90;4.40;;;11.80;99.90;;;;;;5086152;28;20113;-61
2022/08/28 02:38:47;;;;;;;11.40;3.92;;;11.80;99.90;;;;;;5084660;28;20032;-61
2022/08/28 02:41:13;;;;;;;10.45;3.53;;;11.80;99.90;;;;;;5085355;28;20055;-61
2022/08/28 02:43:39;;;;;;;7.40;3.58;;;11.70;99.90;;;;;;5083762;28;20500;-61
2022/08/28 02:46:05;;;;;;;8.70;3.63;;;11.70;99.90;;;;;;5086398;28;20040;-61
2022/08/28 02:48:35;;;;;;;9.75;3.40;;;11.70;99.90;;;;;;5081301;28;20036;-61
2022/08/28 02:51:03;;;;;;;6.25;3.38;;;11.60;99.90;;;;;;5088347;28;20078;-61
2022/08/28 02:53:29;;;;;;;9.35;3.95;;;11.60;99.90;;;;;;5077690;28;20468;-61
2022/08/28 02:55:56;;;;;;;10.60;3.80;;;11.60;99.90;;;;;;5075743;28;20040;-61
2022/08/28 02:58:22;;;;;;;8.38;3.70;;;11.60;99.90;;;;;;5079616;28;20472;-61
2022/08/28 03:00:48;;;;;;;6.57;3.35;;;11.60;99.90;;;;;;5070812;28;20048;-61
2022/08/28 03:03:14;;;;;;;8.27;3.33;;;11.70;99.90;;;;;;5082557;28;20144;-61
2022/08/28 03:05:40;;;;;;;8.82;3.60;;;11.80;99.90;;;;;;5082955;28;20047;-61
2022/08/28 03:08:06;;;;;;;10.02;3.78;;;11.90;99.90;;;;;;5075936;28;20040;-61
2022/08/28 03:10:31;;;;;;;7.63;3.25;;;11.90;99.90;;;;;;5078504;28;20714;-61
2022/08/28 03:12:57;;;;;;;10.23;3.83;;;11.90;99.90;;;;;;5084236;28;20134;-61
2022/08/28 03:15:22;;;;;;;9.50;3.60;;;11.90;99.90;;;;;;5079271;28;20522;-61
2022/08/28 03:17:48;;;;;;;7.32;3.53;;;11.90;99.90;;;;;;5076336;28;20519;-61
2022/08/28 03:20:14;;;;;;;13.02;3.92;;;11.90;99.90;;;;;;5081295;28;20036;-61
2022/08/28 03:25:25;;;;;;;9.18;3.10;;;11.90;99.90;;;;;;5083271;28;20044;-61
2022/08/28 03:27:51;;;;;;;9.43;3.85;;;11.90;99.90;;;;;;5070067;28;20044;-61
2022/08/28 03:30:18;;;;;;;8.93;4.05;;;11.90;99.90;;;;;;5083432;28;20488;-61
2022/08/28 03:32:44;;;;;;;11.70;3.70;;;11.90;99.90;;;;;;5073907;28;20429;-61
2022/08/28 03:35:10;;;;;;;8.45;3.47;;;11.90;99.90;;;;;;5078556;28;20040;-61
2022/08/28 03:37:36;;;;;;;8.32;3.15;;;11.90;99.90;;;;;;5085087;28;20078;-61
2022/08/28 03:40:03;;;;;;;9.88;3.17;;;12.00;99.90;;;;;;5071401;28;20044;-61
2022/08/28 03:42:29;;;;;;;6.55;3.38;;;11.90;99.90;;;;;;5075166;28;20532;-61
2022/08/28 03:44:55;;;;;;;7.93;3.38;;;11.90;99.90;;;;;;5066099;28;20032;-61
2022/08/28 03:47:21;;;;;;;8.98;3.58;;;11.80;99.90;;;;;;5077531;28;20052;-61
2022/08/28 03:49:47;;;;;;;9.15;3.45;;;11.80;99.90;;;;;;5084597;28;20067;-61
2022/08/28 03:52:12;;;;;;;9.02;3.78;;;11.80;99.90;;;;;;5077042;28;20048;-61
2022/08/28 03:54:38;;;;;;;10.38;4.15;;;11.80;99.90;;;;;;5086884;28;20395;-61
2022/08/28 03:57:03;;;;;;;7.07;3.15;;;11.80;99.90;;;;;;5087212;28;20051;-60
2022/08/28 03:59:29;;;;;;;8.40;3.80;;;11.90;99.90;;;;;;5080572;28;20559;-61
2022/08/28 04:01:55;;;;;;;13.63;3.75;;;11.90;99.90;;;;;;5062378;28;20036;-61
2022/08/28 04:04:20;;;;;;;10.00;3.70;;;11.90;99.90;;;;;;5074911;28;20059;-61
2022/08/28 04:06:46;;;;;;;8.55;3.58;;;11.80;99.90;;;;;;5047938;28;20032;-61
2022/08/28 04:09:11;;;;;;;8.15;3.65;;;11.80;99.90;;;;;;5075078;28;20399;-61
2022/08/28 04:11:41;;;;;;;8.00;3.55;;;11.70;99.90;;;;;;5077790;28;20040;-61
2022/08/28 04:14:07;;;;;;;7.82;3.63;;;11.70;99.90;;;;;;5083157;28;20043;-61
2022/08/28 04:16:33;;;;;;;7.32;3.40;;;11.70;99.90;;;;;;5084489;28;20086;-61
2022/08/28 04:18:58;;;;;;;8.05;3.60;;;11.60;99.90;;;;;;5087274;28;20063;-61
2022/08/28 04:21:25;;;;;;;7.10;3.28;;;11.70;99.90;;;;;;5091885;28;20028;-61
2022/08/28 04:23:53;;;;;;;11.00;3.45;;;11.60;99.90;;;;;;5076698;28;20397;-61
2022/08/28 04:26:22;;;;;;;6.30;3.05;;;11.70;99.90;;;;;;5070795;28;20040;-61
2022/08/28 04:28:48;;;;;;;7.88;3.05;;;11.60;99.90;;;;;;5082915;28;20485;-61
2022/08/28 04:31:13;;;;;;;9.38;3.13;;;11.70;99.90;;;;;;5073932;28;20033;-61
2022/08/28 04:33:40;;;;;;;12.63;3.35;;;11.70;99.90;;;;;;5075539;28;22523;-61
2022/08/28 04:36:10;;;;;;;5.75;2.83;;;11.70;99.90;;;;;;5091384;28;20062;-61
2022/08/28 04:38:36;;;;;;;6.20;3.25;;;11.70;99.90;;;;;;5077769;28;20141;-61
2022/08/28 04:41:04;;;;;;;7.78;3.17;;;11.70;99.90;;;;;;5094930;28;20039;-61
2022/08/28 04:43:30;;;;;;;7.60;2.60;;;11.70;99.90;;;;;;5077815;28;20048;-61
2022/08/28 04:45:55;;;;;;;5.90;2.78;;;11.70;99.90;;;;;;5086328;28;20056;-61
2022/08/28 04:48:21;;;;;;;5.47;2.33;;;11.70;99.90;;;;;;5084447;28;20051;-61
2022/08/28 04:50:48;;;;;;;11.38;3.63;;;11.70;99.90;;;;;;5080846;28;20045;-61
2022/08/28 04:53:17;;;;;;;8.50;2.97;;;11.60;99.90;;;;;;5067101;28;20118;-61
2022/08/28 04:55:45;;;;;;;10.43;2.95;;;11.70;99.90;;;;;;5071242;28;20054;-61
2022/08/28 04:58:11;;;;;;;6.10;2.45;;;11.70;99.90;;;;;;5092800;28;20489;-61
2022/08/28 05:00:39;;;;;;;9.10;2.97;;;11.80;99.90;;;;;;5089047;28;20036;-61
2022/08/28 05:03:05;;;;;;;8.35;3.60;;;11.90;99.90;;;;;;5092484;28;20032;-61
2022/08/28 05:05:31;;;;;;;8.90;3.00;;;12.00;99.90;;;;;;5080281;28;20051;-61
2022/08/28 05:07:56;;;;;;;6.88;2.80;;;12.10;99.90;;;;;;5081565;28;20044;-61
2022/08/28 05:10:23;;;;;;;8.75;3.40;;;12.10;99.90;;;;;;5056601;28;20041;-61
2022/08/28 05:12:49;;;;;;;7.32;2.97;;;12.20;99.90;;;;;;5070452;28;20040;-61
2022/08/28 05:15:15;;;;;;;5.55;2.53;;;12.30;99.90;;;;;;5077705;28;20074;-61
2022/08/28 05:17:41;;;;;;;9.02;3.17;;;12.30;99.90;;;;;;5072336;28;20036;-61
2022/08/28 05:20:07;;;;;;;7.65;2.97;;;12.30;99.90;;;;;;5083214;28;20761;-61
2022/08/28 05:22:32;;;;;;;9.30;3.15;;;12.30;99.90;;;;;;5091155;28;20036;-61
2022/08/28 05:24:59;;;;;;;9.45;2.67;;;12.30;99.90;;;;;;5090182;28;20484;-61
2022/08/28 05:27:26;;;;;;;6.20;2.63;;;12.30;99.90;;;;;;5077774;28;20499;-61
2022/08/28 05:29:52;;;;;;;9.50;2.83;;;12.40;99.90;;;;;;5078182;28;20040;-61
2022/08/28 05:32:19;;;;;;;8.02;2.92;;;12.40;99.90;;;;;;5073822;28;20048;-61
2022/08/28 05:34:45;;;;;;;5.22;2.53;;;12.40;99.90;;;;;;5083647;28;20067;-61
2022/08/28 05:37:11;;;;;;;5.43;2.40;;;12.40;99.90;;;;;;5089404;28;20124;-62
2022/08/28 05:39:37;;;;;;;6.97;2.38;;;12.40;99.90;;;;;;5062001;28;20046;-61
2022/08/28 05:42:03;;;;;;;10.77;3.05;;;12.50;99.90;;;;;;5082214;28;20036;-61
2022/08/28 05:44:28;;;;;;;10.30;3.33;;;12.50;99.90;;;;;;5063201;28;20044;-61
2022/08/28 05:46:54;;;;;;;10.85;3.00;;;12.60;99.90;;;;;;5093506;28;20056;-61
2022/08/28 05:49:20;;;;;;;8.95;2.83;;;12.60;99.90;;;;;;5064589;28;20056;-61
2022/08/28 05:51:47;;;;;;;7.22;2.70;;;12.70;99.90;;;;;;5074186;28;20050;-61
2022/08/28 05:54:14;;;;;;;6.80;2.78;;;12.80;99.90;;;;;;5084185;28;20708;-61
2022/08/28 05:56:42;;;;;;;9.82;3.20;;;12.80;99.90;;;;;;5092417;28;20507;-61
2022/08/28 05:59:09;;;;;;;7.22;2.55;;;12.90;99.90;;;;;;5086239;28;20074;-61
2022/08/28 06:01:39;;;;;;;11.45;2.92;;;12.90;99.90;;;;;;5079910;28;20116;-61
2022/08/28 06:04:26;;;;;;;8.40;2.50;;;13.00;99.90;;;;;;5078313;28;20089;-61
2022/08/28 06:06:52;;;;;;;10.30;3.40;;;13.10;99.90;;;;;;5072387;28;20040;-61
2022/08/28 06:09:21;;;;;;;6.90;2.88;;;13.20;99.90;;;;;;5071669;28;20045;-61
2022/08/28 06:11:48;;;;;;;10.43;3.05;;;13.20;99.90;;;;;;5038441;28;20044;-61
2022/08/28 06:14:16;;;;;;;8.32;2.50;;;13.30;99.90;;;;;;5055753;28;20048;-61
2022/08/28 06:16:44;;;;;;;8.55;2.50;;;13.40;99.90;;;;;;5078363;28;20077;-61
2022/08/28 06:19:11;;;;;;;7.63;2.47;;;13.60;99.90;;;;;;5076257;28;20040;-62
2022/08/28 06:21:42;;;;;;;8.23;2.72;;;13.60;99.90;;;;;;5078384;28;20048;-61
2022/08/28 06:24:09;;;;;;;7.35;2.67;;;13.80;99.90;;;;;;5072476;28;20082;-62
2022/08/28 06:26:34;;;;;;;6.10;2.53;;;13.90;99.90;;;;;;5083198;28;20044;-62
2022/08/28 06:29:03;;;;;;;8.30;2.95;;;14.10;99.90;;;;;;5071658;28;20042;-62
2022/08/28 06:31:28;;;;;;;5.28;2.22;;;14.30;99.90;;;;;;5089352;28;20419;-62
2022/08/28 06:33:56;;;;;;;8.13;2.83;;;14.60;99.90;;;;;;5085150;28;20123;-62
2022/08/28 06:36:26;;;;;;;7.90;2.05;;;14.80;99.90;;;;;;5086429;28;20111;-62
2022/08/28 06:38:53;;;;;;;;;;;15.10;99.90;;;;;;5062684;28;20036;-62
2022/08/28 06:41:19;;;;;;;8.20;1.92;;;15.50;99.90;;;;;;5090498;28;20351;-62
2022/08/28 06:43:45;;;;;;;6.18;1.52;;;15.70;99.90;;;;;;5087563;28;20101;-62
2022/08/28 06:46:10;;;;;;;4.78;1.90;;;16.10;99.90;;;;;;5085050;28;20056;-62
2022/08/28 06:48:36;;;;;;;6.07;2.00;;;16.50;99.90;;;;;;5088351;28;20046;-62
2022/08/28 06:51:05;;;;;;;4.65;1.80;;;16.80;99.90;;;;;;5082387;28;20039;-62
2022/08/28 06:53:31;;;;;;;7.07;1.98;;;17.10;99.90;;;;;;5084024;28;20118;-62
2022/08/28 06:56:07;;;;;;;6.05;1.73;;;17.50;99.90;;;;;;5090313;28;20044;-63
2022/08/28 06:58:35;;;;;;;5.43;1.90;;;17.70;99.90;;;;;;5088594;28;20055;-62
2022/08/28 07:01:16;;;;;;;6.03;1.63;;;18.00;99.90;;;;;;5071596;28;20041;-63
2022/08/28 07:03:44;;;;;;;8.93;2.03;;;18.20;99.90;;;;;;5059257;28;20388;-63
2022/08/28 07:06:12;;;;;;;6.50;1.50;;;18.60;99.90;;;;;;5072183;28;20153;-63
2022/08/28 07:08:39;;;;;;;6.38;1.75;;;18.80;99.90;;;;;;5072684;28;20036;-63
2022/08/28 07:11:13;;;;;;;5.00;1.70;;;19.10;99.40;;;;;;5077360;28;20119;-63
2022/08/28 07:13:40;;;;;;;5.20;1.85;;;19.20;97.80;;;;;;5072862;28;20629;-63
2022/08/28 07:16:07;;;;;;;3.53;1.70;;;19.50;97.80;;;;;;5052971;28;20460;-64
2022/08/28 07:18:33;;;;;;;3.30;1.27;;;19.70;97.20;;;;;;5070974;28;20354;-64
2022/08/28 07:21:02;;;;;;;4.10;1.40;;;20.00;96.60;;;;;;5071064;28;20106;-63
2022/08/28 07:23:29;;;;;;;4.68;1.60;;;20.30;95.60;;;;;;5074556;28;20123;-63
2022/08/28 07:25:55;;;;;;;6.22;1.40;;;20.40;94.80;;;;;;5088975;28;20052;-63
2022/08/28 07:28:21;;;;;;;7.13;1.45;;;20.60;94.10;;;;;;5082464;28;20070;-63
2022/08/28 07:30:56;;;;;;;6.10;1.60;;;20.90;93.40;;;;;;5081244;28;20079;-64
2022/08/28 07:33:23;;;;;;;4.88;1.50;;;21.10;91.50;;;;;;5076988;28;20044;-64
2022/08/28 07:35:49;;;;;;;4.95;1.70;;;21.30;91.90;;;;;;5071939;28;20040;-63
2022/08/28 07:38:15;;;;;;;4.45;1.55;;;21.40;91.20;;;;;;5076832;28;20463;-64
2022/08/28 07:40:41;;;;;;;5.15;1.67;;;21.60;90.50;;;;;;5081390;28;20346;-65
2022/08/28 07:45:58;;;;;;;6.30;1.73;;;22.10;86.60;;;;;;5079530;28;20082;-64
2022/08/28 07:48:24;;;;;;;4.20;1.40;;;22.40;83.20;;;;;;5088679;28;20052;-64
2022/08/28 07:50:49;;;;;;;7.45;1.30;;;22.40;82.90;;;;;;5082441;28;20036;-64
2022/08/28 07:53:15;;;;;;;5.80;1.60;;;22.30;81.30;;;;;;5086611;28;20039;-64
2022/08/28 07:55:40;;;;;;;4.65;1.45;;;22.20;80.10;;;;;;5090238;28;20084;-64
2022/08/28 07:58:06;;;;;;;5.20;1.48;;;22.10;79.20;;;;;;5092130;28;20071;-64
2022/08/28 08:00:31;;;;;;;4.90;1.60;;;21.90;78.80;;;;;;5087474;28;20044;-64
2022/08/28 08:02:57;;;;;;;4.35;1.52;;;21.90;78.50;;;;;;5088662;28;20499;-65
2022/08/28 08:05:23;;;;;;;6.90;1.35;;;22.00;78.20;;;;;;5086454;28;20131;-64
2022/08/28 08:07:48;;;;;;;4.45;1.40;;;22.10;77.80;;;;;;5083379;28;20480;-65
2022/08/28 08:10:14;;;;;;;6.88;1.60;;;22.30;77.40;;;;;;5086352;28;20452;-66
2022/08/28 08:12:41;;;;;;;5.38;1.35;;;22.30;77.50;;;;;;5084503;28;20032;-66
2022/08/28 08:15:08;;;;;;;3.35;1.27;;;22.30;75.90;;;;;;5065500;28;20052;-65
2022/08/28 08:17:34;;;;;;;7.70;1.80;;;22.30;74.50;;;;;;5074555;28;20039;-66
2022/08/28 08:20:00;;;;;;;3.70;1.30;;;22.20;73.40;;;;;;5075181;28;20028;-64
2022/08/28 08:22:25;;;;;;;4.18;1.35;;;22.20;72.70;;;;;;5090155;28;20036;-64
2022/08/28 08:24:53;;;;;;;3.13;1.33;;;22.20;72.00;;;;;;5075419;28;20383;-65
2022/08/28 08:27:19;;;;;;;7.15;1.77;;;22.40;71.30;;;;;;5067574;28;20079;-65
2022/08/28 08:29:44;;;;;;;4.75;1.23;;;22.60;70.20;;;;;;5074719;28;20036;-65
2022/08/28 08:32:11;;;;;;;3.13;1.30;;;22.70;69.80;;;;;;5075278;28;20090;-64
2022/08/28 08:34:44;;;;;;;4.90;1.45;;;22.90;68.80;;;;;;5072326;28;20120;-66
2022/08/28 08:37:12;;;;;;;8.55;1.38;;;23.40;67.50;;;;;;5073656;28;20044;-65
2022/08/28 08:39:40;;;;;;;3.35;1.20;;;23.90;65.00;;;;;;5082620;28;20086;-65
2022/08/28 08:42:30;;;;;;;4.00;1.50;;;24.40;62.80;;;;;;5078985;28;20040;-66
2022/08/28 08:45:04;;;;;;;4.53;1.40;;;24.10;61.30;;;;;;5079093;28;20484;-65
2022/08/28 08:47:41;;;;;;;5.47;1.40;;;23.40;60.90;;;;;;5073869;28;20127;-65
2022/08/28 08:50:22;;;;;;;3.08;1.40;;;23.70;61.00;;;;;;5082085;28;20048;-65
2022/08/28 08:53:07;;;;;;;4.38;1.30;;;24.60;58.90;;;;;;5083428;28;20119;-65
2022/08/28 08:55:45;;;;;;;5.35;1.40;;;24.50;58.50;;;;;;5076709;28;20503;-66
2022/08/28 08:58:10;;;;;;;7.60;1.70;;;23.80;59.40;;;;;;5087211;28;20047;-65
2022/08/28 09:00:45;;;;;;;4.13;1.38;;;23.20;60.40;;;;;;5080742;28;20040;-65
2022/08/28 09:03:21;;;;;;;4.90;1.70;;;23.50;60.50;;;;;;5081103;28;20036;-65
2022/08/28 09:05:53;;;;;;;2.67;1.38;;;23.50;59.90;;;;;;5076285;28;20036;-65
2022/08/28 09:08:44;;;;;;;6.07;1.30;;;23.20;60.80;;;;;;5074670;28;20111;-65
2022/08/28 09:11:29;;;;;;;6.80;1.60;;;23.70;60.10;;;;;;5084802;28;20036;-66
2022/08/28 09:14:07;;;;;;;4.60;1.52;;;24.70;58.50;;;;;;5075584;28;20036;-66
2022/08/28 09:16:37;;;;;;;3.72;1.40;;;26.00;55.50;;;;;;5075578;28;20044;-65
2022/08/28 09:19:05;;;;;;;3.03;1.50;;;26.80;53.30;;;;;;5092605;28;20122;-65
2022/08/28 09:21:33;;;;;;;4.28;1.42;;;26.30;52.60;;;;;;5091891;28;20068;-66
2022/08/28 09:24:02;;;;;;;7.90;1.80;;;25.60;53.10;;;;;;5072480;28;20048;-65
2022/08/28 09:26:28;;;;;;;6.45;1.50;;;25.10;54.00;;;;;;5073588;28;20051;-65
2022/08/28 09:29:15;;;;;;;5.20;1.77;;;24.50;55.30;;;;;;5073627;28;20408;-66
2022/08/28 09:31:41;;;;;;;4.57;1.42;;;24.00;56.40;;;;;;5074910;28;20062;-66
2022/08/28 09:34:27;;;;;;;6.30;1.60;;;23.30;57.90;;;;;;5072462;28;20086;-65
2022/08/28 09:36:54;;;;;;;4.25;1.50;;;22.90;59.10;;;;;;5079470;28;20036;-65
2022/08/28 09:39:24;;;;;;;3.90;1.42;;;22.70;60.00;;;;;;5086404;28;20094;-65
2022/08/28 09:45:13;;;;;;;5.75;1.60;;;23.10;60.70;;;;;;5075007;28;20048;-64
2022/08/28 09:47:47;;;;;;;4.63;1.52;;;23.30;60.00;;;;;;5072914;28;20071;-63
2022/08/28 09:50:22;;;;;;;4.55;1.77;;;23.10;59.00;;;;;;5090193;28;20051;-65
2022/08/28 09:52:48;;;;;;;5.40;1.55;;;22.80;59.40;;;;;;5072331;28;20041;-65
2022/08/28 09:55:38;;;;;;;5.85;1.80;;;22.60;59.80;;;;;;5054739;28;20040;-66
2022/08/28 09:58:05;;;;;;;8.63;2.00;;;22.90;59.70;;;;;;5043884;28;20044;-65
2022/08/28 10:00:35;;;;;;;6.07;1.88;;;22.90;59.50;;;;;;5079447;28;20037;-65
2022/08/28 10:03:27;;;;;;;4.05;1.63;;;23.20;58.90;;;;;;5084549;28;20415;-65
2022/08/28 10:05:55;;;;;;;5.60;1.55;;;23.80;57.50;;;;;;5073402;28;20132;-65
2022/08/28 10:08:54;;;;;;;2.67;1.27;;;24.30;56.80;;;;;;5075242;28;20059;-66
2022/08/28 10:11:41;;;;;;;5.38;1.48;;;24.50;54.70;;;;;;5081699;28;20056;-65
2022/08/28 10:14:47;;;;;;;6.60;1.85;;;24.50;54.70;;;;;;5083736;28;20048;-65
2022/08/28 10:17:38;;;;;;;5.70;1.60;;;24.20;55.00;;;;;;5053675;28;20044;-65
2022/08/28 10:20:16;;;;;;;6.60;1.60;;;24.20;55.40;;;;;;5076199;28;20036;-65
2022/08/28 10:22:41;;;;;;;5.18;2.03;;;24.20;55.50;;;;;;5074184;28;20075;-65
2022/08/28 10:25:22;;;;;;;5.70;1.63;;;24.20;55.90;;;;;;5078007;28;20071;-65
2022/08/28 10:27:54;;;;;;;;;;;24.20;56.10;;;;;;5091911;28;20408;-65
2022/08/28 10:30:23;;;;;;;5.10;2.10;;;24.00;56.20;;;;;;5085697;28;19923;-66
2022/08/28 10:33:13;;;;;;;5.03;1.48;;;23.80;56.30;;;;;;5077513;28;20043;-65
2022/08/28 10:35:51;;;;;;;4.38;1.40;;;23.50;55.70;;;;;;5076458;28;20044;-65
2022/08/28 10:38:25;;;;;;;5.90;1.52;;;23.20;56.50;;;;;;5072969;28;20469;-65
2022/08/28 10:41:13;;;;;;;3.97;1.23;;;23.20;57.00;;;;;;5068084;28;20037;-66
2022/08/28 10:43:45;;;;;;;5.32;1.77;;;23.30;56.60;;;;;;5070728;28;20048;-65
2022/08/28 10:46:17;;;;;;;3.58;1.42;;;23.20;56.20;;;;;;5081542;28;20101;-65
2022/08/28 10:48:52;;;;;;;3.03;1.20;;;23.10;56.30;;;;;;5070379;28;20044;-66
2022/08/28 10:51:43;;;;;;;3.40;1.50;;;23.30;56.50;;;;;;5068128;28;20404;-66
2022/08/28 10:54:41;;;;;;;7.88;1.85;;;23.30;55.20;;;;;;5088021;28;20070;-65
2022/08/28 10:57:29;;;;;;;4.63;1.40;;;23.10;55.80;;;;;;5050664;28;20048;-66
2022/08/28 10:59:54;;;;;;;5.32;1.65;;;22.90;57.20;;;;;;5089245;28;20032;-65
2022/08/28 11:02:23;;;;;;;4.78;1.70;;;23.00;56.80;;;;;;5091493;28;20484;-66
2022/08/28 11:04:56;;;;;;;3.92;1.45;;;23.10;56.50;;;;;;5075440;28;20714;-66
2022/08/28 11:07:45;;;;;;;4.28;1.52;;;23.20;55.70;;;;;;5065959;28;20169;-65
2022/08/28 11:10:43;;;;;;;5.63;1.75;;;23.20;55.70;;;;;;5075877;28;20036;-65
2022/08/28 11:13:09;;;;;;;6.38;1.60;;;23.30;55.90;;;;;;5087898;28;20078;-65
2022/08/28 11:15:38;;;;;;;4.80;1.30;;;23.40;56.10;;;;;;5081259;28;20505;-66
2022/08/28 11:18:16;;;;;;;3.42;1.33;;;23.70;56.00;;;;;;5080806;28;20032;-65
2022/08/28 11:20:55;;;;;;;6.57;1.60;;;23.80;55.30;;;;;;5057407;28;20075;-66
2022/08/28 11:23:35;;;;;;;5.32;1.52;;;23.70;55.00;;;;;;5070828;28;20044;-65
2022/08/28 11:26:05;;;;;;;4.60;1.20;;;23.40;52.60;;;;;;5077590;28;20396;-66
2022/08/28 11:28:33;;;;;;;2.17;1.48;;;23.00;54.30;;;;;;5070712;28;20055;-65
2022/08/28 11:31:02;;;;;;;3.97;1.48;;;23.00;54.40;;;;;;5070844;28;20071;-65
2022/08/28 11:33:34;;;;;;;7.70;1.50;;;23.00;54.50;;;;;;5074802;28;20516;-65
2022/08/28 11:36:00;;;;;;;3.97;1.60;;;23.10;54.40;;;;;;5054733;28;20062;-66
2022/08/28 11:38:40;;;;;;;4.78;1.60;;;23.10;54.50;;;;;;5081563;28;20053;-66
2022/08/28 11:41:20;;;;;;;2.20;1.33;;;23.10;54.40;;;;;;5076262;28;20135;-66
2022/08/28 11:43:48;;;;;;;4.07;1.48;;;23.40;54.60;;;;;;5087612;28;20098;-65
2022/08/28 11:46:47;;;;;;;5.57;1.67;;;23.60;53.80;;;;;;5071210;28;20099;-65
2022/08/28 11:49:25;;;;;;;4.50;1.80;;;23.70;52.40;;;;;;5015253;28;20500;-66
2022/08/28 11:52:05;;;;;;;5.25;1.60;;;23.80;53.00;;;;;;5070501;28;20029;-68
2022/08/28 11:54:57;;;;;;;3.08;1.38;;;23.90;53.50;;;;;;5052503;28;20403;-66
2022/08/28 11:57:24;;;;;;;8.38;1.55;;;23.70;53.10;;;;;;5066996;28;20039;-66
2022/08/28 11:59:59;;;;;;;4.43;1.30;;;23.50;53.30;;;;;;5070291;28;20037;-65
2022/08/28 12:02:41;;;;;;;4.22;1.50;;;23.40;53.80;;;;;;5070878;28;20068;-65
2022/08/28 12:05:29;;;;;;;5.38;1.70;;;23.50;53.80;;;;;;5085621;28;20051;-66
2022/08/28 12:07:55;;;;;;;4.70;1.52;;;23.70;54.10;;;;;;5044412;28;20175;-66
2022/08/28 12:10:23;;;;;;;5.97;1.50;;;24.10;53.50;;;;;;5077663;28;20127;-67
2022/08/28 12:12:52;;;;;;;6.03;1.52;;;24.30;52.80;;;;;;5077646;28;20163;-66
2022/08/28 12:15:26;;;;;;;4.78;1.23;;;24.40;52.50;;;;;;5087795;28;20702;-66
2022/08/28 12:17:57;;;;;;;4.50;1.60;;;24.20;52.30;;;;;;5077947;28;20040;-66
2022/08/28 12:20:27;;;;;;;6.10;1.77;;;24.10;52.60;;;;;;5069111;28;20143;-66
2022/08/28 12:22:56;;;;;;;5.38;1.60;;;24.00;52.60;;;;;;5075356;28;20038;-66
2022/08/28 12:25:35;;;;;;;4.13;1.40;;;24.00;53.30;;;;;;5088094;28;20040;-67
2022/08/28 12:28:15;;;;;;;4.90;1.40;;;24.20;52.50;;;;;;5065731;28;20063;-66
2022/08/28 12:30:52;;;;;;;3.90;1.52;;;24.10;52.30;;;;;;5083105;28;20032;-66
2022/08/28 12:33:51;;;;;;;4.43;1.40;;;24.00;51.80;;;;;;5081341;28;20071;-66
2022/08/28 12:36:25;;;;;;;3.70;1.60;;;24.00;51.10;;;;;;5043340;28;20040;-67
2022/08/28 12:38:52;;;;;;;3.15;1.40;;;24.10;51.50;;;;;;5075651;28;20454;-67
2022/08/28 12:41:19;;;;;;;5.40;1.65;;;24.30;51.60;;;;;;5071527;28;20033;-65
2022/08/28 12:43:49;;;;;;;2.72;1.20;;;24.70;51.00;;;;;;5069787;28;20407;-66
2022/08/28 12:46:20;;;;;;;4.78;1.50;;;25.00;50.20;;;;;;5074083;28;20060;-67
2022/08/28 12:48:50;;;;;;;2.65;1.50;;;25.10;49.90;;;;;;5069542;28;20056;-66
2022/08/28 12:51:21;;;;;;;4.20;1.60;;;25.50;49.10;;;;;;5086295;28;20074;-68
2022/08/28 12:53:50;;;;;;;3.83;1.38;;;25.30;48.20;;;;;;5079787;28;20044;-67
2022/08/28 12:56:18;;;;;;;4.88;1.67;;;25.90;48.00;;;;;;5084063;28;20039;-67
2022/08/28 12:58:44;;;;;;;4.93;1.70;;;27.30;46.80;;;;;;5088508;28;20683;-66
2022/08/28 13:01:22;;;;;;;4.45;1.40;;;29.60;44.60;;;;;;5082998;28;20074;-67
2022/08/28 13:03:53;;;;;;;3.33;1.70;;;31.90;42.00;;;;;;5078753;28;20043;-65
2022/08/28 13:06:26;;;;;;;4.43;1.45;;;31.10;40.00;;;;;;5068685;28;20040;-67
2022/08/28 13:09:19;;;;;;;6.03;1.60;;;31.40;39.50;;;;;;5074440;28;20039;-67
2022/08/28 13:11:48;;;;;;;2.53;1.45;;;33.30;38.70;;;;;;5081149;28;20060;-68